createdAt,value
2023-03-22T00:00:15.236Z,1.67
2023-03-22T00:02:45.552Z,1.65
2023-03-22T00:05:14.302Z,2.25
2023-03-22T00:07:43.529Z,3.60
2023-03-22T00:10:12.479Z,2.80
2023-03-22T00:12:41.134Z,3.33
2023-03-22T00:15:11.196Z,5.15
2023-03-22T00:17:42.307Z,3.55
2023-03-22T00:20:13.125Z,3.33
2023-03-22T00:22:41.705Z,3.78
2023-03-22T00:25:10.536Z,4.03
2023-03-22T00:27:39.387Z,4.45
2023-03-22T00:30:08.765Z,4.07
2023-03-22T00:32:37.390Z,3.97
2023-03-22T00:35:06.717Z,5.80
2023-03-22T00:37:38.782Z,4.82
2023-03-22T00:40:09.891Z,6.05
2023-03-22T00:42:38.579Z,5.03
2023-03-22T00:45:08.296Z,5.05
2023-03-22T00:47:36.955Z,5.35
2023-03-22T00:50:05.964Z,5.35
2023-03-22T00:52:34.819Z,5.50
2023-03-22T00:55:05.556Z,6.40
2023-03-22T00:57:34.215Z,7.10
2023-03-22T01:00:10.410Z,6.82
2023-03-22T01:02:38.971Z,5.40
2023-03-22T01:05:07.926Z,6.05
2023-03-22T01:07:38.408Z,6.50
2023-03-22T01:10:09.518Z,6.72
2023-03-22T01:12:38.079Z,6.22
2023-03-22T01:15:07.248Z,6.50
2023-03-22T01:17:36.087Z,6.90
2023-03-22T01:20:07.263Z,6.35
2023-03-22T01:22:35.934Z,5.22
2023-03-22T01:25:04.793Z,5.53
2023-03-22T01:27:34.751Z,5.20
2023-03-22T01:30:03.649Z,6.63
2023-03-22T01:32:32.075Z,6.47
2023-03-22T01:35:00.612Z,6.05
2023-03-22T01:37:28.935Z,6.68
2023-03-22T01:39:57.311Z,5.47
2023-03-22T01:42:26.338Z,6.18
2023-03-22T01:45:13.666Z,6.40
2023-03-22T01:47:45.817Z,6.18
2023-03-22T01:50:14.530Z,5.93
2023-03-22T01:52:43.393Z,5.50
2023-03-22T01:55:13.083Z,6.00
2023-03-22T01:57:43.917Z,5.75
2023-03-22T02:00:15.779Z,6.05
2023-03-22T02:02:46.948Z,5.05
2023-03-22T02:05:15.880Z,5.10
2023-03-22T02:07:45.546Z,5.07
2023-03-22T02:10:15.012Z,4.88
2023-03-22T02:12:51.741Z,4.68
2023-03-22T02:15:24.297Z,4.60
2023-03-22T02:18:01.692Z,4.53
2023-03-22T02:20:45.331Z,4.53
2023-03-22T02:23:32.323Z,4.10
2023-03-22T02:26:13.644Z,4.15
2023-03-22T02:28:45.424Z,3.58
2023-03-22T02:31:38.280Z,3.90
2023-03-22T02:34:35.379Z,3.78
2023-03-22T02:37:29.720Z,4.63
2023-03-22T02:40:03.895Z,3.67
2023-03-22T02:42:41.437Z,3.10
2023-03-22T02:45:12.676Z,4.15
2023-03-22T02:47:43.546Z,4.03
2023-03-22T02:50:16.127Z,4.07
2023-03-22T02:52:46.742Z,2.25
2023-03-22T02:55:19.457Z,3.20
2023-03-22T02:57:51.047Z,3.72
2023-03-22T03:00:21.075Z,3.38
2023-03-22T03:02:51.863Z,3.13
2023-03-22T03:05:21.751Z,2.53
2023-03-22T03:07:52.272Z,3.40
2023-03-22T03:10:22.785Z,2.35
2023-03-22T03:12:51.586Z,2.22
2023-03-22T03:15:21.610Z,2.13
2023-03-22T03:18:03.169Z,2.45
2023-03-22T03:20:34.863Z,2.95
2023-03-22T03:23:13.684Z,2.30
2023-03-22T03:25:48.826Z,1.90
2023-03-22T03:28:23.004Z,2.08
2023-03-22T03:30:56.227Z,2.00
2023-03-22T03:33:26.079Z,1.90
2023-03-22T03:35:57.878Z,1.92
2023-03-22T03:38:27.758Z,2.00
2023-03-22T03:40:59.271Z,1.60
2023-03-22T03:43:27.869Z,1.95
2023-03-22T03:45:57.368Z,1.20
2023-03-22T03:48:28.448Z,1.45
2023-03-22T03:50:58.546Z,1.60
2023-03-22T03:53:27.193Z,1.50
2023-03-22T03:55:55.806Z,1.50
2023-03-22T03:58:25.902Z,2.05
2023-03-22T04:00:54.711Z,1.92
2023-03-22T04:03:23.347Z,1.42
2023-03-22T04:05:51.886Z,1.52
2023-03-22T04:09:10.545Z,1.23
2023-03-22T04:11:39.118Z,0.98
2023-03-22T04:14:09.076Z,0.90
2023-03-22T04:16:37.711Z,1.70
2023-03-22T04:19:06.350Z,1.23
2023-03-22T04:21:34.989Z,0.98
2023-03-22T04:24:03.728Z,0.90
2023-03-22T04:26:32.620Z,1.48
2023-03-22T04:29:02.977Z,1.13
2023-03-22T04:31:34.018Z,0.68
2023-03-22T04:34:08.775Z,1.30
2023-03-22T04:36:39.702Z,1.20
2023-03-22T04:39:10.507Z,0.98
2023-03-22T04:41:39.350Z,1.55
2023-03-22T04:44:08.202Z,0.70
2023-03-22T04:46:38.609Z,1.05
2023-03-22T04:49:07.691Z,0.90
2023-03-22T04:51:36.417Z,1.25
2023-03-22T04:54:06.236Z,1.33
2023-03-22T04:56:34.823Z,0.95
2023-03-22T04:59:03.491Z,0.50
2023-03-22T05:01:32.157Z,0.80
2023-03-22T05:04:02.159Z,0.90
2023-03-22T05:06:32.804Z,0.82
2023-03-22T05:09:01.652Z,0.80
2023-03-22T05:11:30.261Z,0.95
2023-03-22T05:13:59.576Z,0.63
2023-03-22T05:16:28.254Z,1.10
2023-03-22T05:18:57.038Z,0.95
2023-03-22T05:21:29.208Z,0.50
2023-03-22T05:23:58.764Z,0.90
2023-03-22T05:26:28.150Z,1.25
2023-03-22T05:28:57.089Z,0.95
2023-03-22T05:31:28.673Z,0.85
2023-03-22T05:33:57.691Z,1.00
2023-03-22T05:36:29.817Z,1.00
2023-03-22T05:38:58.456Z,0.60
2023-03-22T05:41:27.290Z,0.93
2023-03-22T05:43:55.949Z,0.45
2023-03-22T05:46:24.640Z,1.08
2023-03-22T05:48:53.346Z,1.10
2023-03-22T05:51:25.813Z,1.48
2023-03-22T05:53:56.101Z,0.80
2023-03-22T05:56:25.189Z,1.58
2023-03-22T05:58:53.917Z,0.68
2023-03-22T06:01:23.219Z,1.00
2023-03-22T06:03:51.970Z,0.73
2023-03-22T06:06:20.609Z,0.88
2023-03-22T06:08:49.176Z,1.38
2023-03-22T06:11:19.438Z,0.95
2023-03-22T06:13:48.058Z,0.90
2023-03-22T06:16:16.752Z,1.25
2023-03-22T06:18:45.425Z,0.70
2023-03-22T06:21:14.012Z,1.08
2023-03-22T06:23:43.700Z,0.40
2023-03-22T06:26:12.613Z,1.15
2023-03-22T06:28:42.850Z,0.50
2023-03-22T06:31:12.067Z,0.95
2023-03-22T06:33:40.762Z,1.00
2023-03-22T06:36:09.603Z,0.52
2023-03-22T06:38:37.965Z,0.70
2023-03-22T06:41:06.794Z,0.65
2023-03-22T06:43:35.337Z,0.70
2023-03-22T06:46:05.486Z,0.50
2023-03-22T06:48:34.012Z,1.23
2023-03-22T06:51:02.836Z,0.50
2023-03-22T06:53:31.237Z,0.55
2023-03-22T06:55:59.657Z,0.77
2023-03-22T06:58:28.795Z,0.82
2023-03-22T07:00:57.306Z,0.70
2023-03-22T07:03:27.152Z,0.68
2023-03-22T07:06:02.405Z,0.95
2023-03-22T07:08:30.840Z,0.65
2023-03-22T07:10:59.185Z,1.10
2023-03-22T07:13:28.374Z,0.85
2023-03-22T07:15:57.582Z,0.70
2023-03-22T07:18:27.947Z,1.70
2023-03-22T07:20:56.425Z,0.68
2023-03-22T07:23:24.760Z,1.00
2023-03-22T07:25:55.938Z,1.67
2023-03-22T07:28:24.569Z,0.73
2023-03-22T07:31:02.200Z,0.70
2023-03-22T07:33:31.915Z,0.45
2023-03-22T07:36:00.539Z,1.10
2023-03-22T07:38:29.624Z,0.80
2023-03-22T07:40:57.916Z,0.60
2023-03-22T07:43:26.511Z,0.70
2023-03-22T07:45:55.243Z,1.85
2023-03-22T07:48:24.168Z,1.13
2023-03-22T07:50:57.871Z,0.68
2023-03-22T07:53:26.606Z,1.25
2023-03-22T07:55:55.242Z,0.88
2023-03-22T07:58:23.867Z,1.00
2023-03-22T08:00:52.464Z,1.05
2023-03-22T08:03:22.320Z,0.85
2023-03-22T08:05:51.758Z,1.10
2023-03-22T08:08:21.846Z,0.65
2023-03-22T08:10:51.876Z,1.00
2023-03-22T08:13:20.535Z,0.90
2023-03-22T08:15:49.190Z,0.85
2023-03-22T08:18:17.798Z,1.00
2023-03-22T08:20:46.773Z,1.30
2023-03-22T08:23:16.388Z,1.10
2023-03-22T08:25:46.436Z,0.90
2023-03-22T08:28:15.965Z,1.17
2023-03-22T08:30:44.706Z,0.70
2023-03-22T08:33:13.635Z,0.93
2023-03-22T08:35:42.677Z,1.10
2023-03-22T08:38:12.589Z,0.95
2023-03-22T08:40:41.444Z,1.10
2023-03-22T08:43:11.435Z,1.00
2023-03-22T08:45:40.461Z,0.60
2023-03-22T08:48:09.182Z,1.00
2023-03-22T08:50:37.963Z,1.00
2023-03-22T08:53:06.853Z,0.77
2023-03-22T08:55:36.126Z,0.68
2023-03-22T08:58:06.347Z,1.35
2023-03-22T09:00:47.658Z,0.70
2023-03-22T09:03:17.190Z,0.98
2023-03-22T09:05:45.864Z,2.00
2023-03-22T09:08:19.077Z,1.70
2023-03-22T09:10:51.601Z,1.13
2023-03-22T09:13:20.772Z,0.80
2023-03-22T09:15:52.385Z,0.70
2023-03-22T09:18:21.081Z,0.60
2023-03-22T09:20:49.772Z,0.60
2023-03-22T09:23:18.551Z,0.75
2023-03-22T09:25:47.761Z,0.90
2023-03-22T09:28:16.647Z,1.13
2023-03-22T09:30:45.967Z,0.90
2023-03-22T09:33:16.003Z,0.60
2023-03-22T09:35:44.936Z,0.68
2023-03-22T09:38:18.996Z,0.88
2023-03-22T09:40:52.548Z,0.60
2023-03-22T09:43:21.865Z,0.65
2023-03-22T09:45:52.446Z,0.80
2023-03-22T09:48:28.765Z,0.95
2023-03-22T09:50:58.273Z,0.95
2023-03-22T09:53:29.398Z,0.82
2023-03-22T09:56:04.189Z,0.82
2023-03-22T09:58:37.921Z,1.00
2023-03-22T10:01:20.860Z,0.70
2023-03-22T10:04:18.813Z,1.27
2023-03-22T10:06:50.808Z,1.13
2023-03-22T10:09:26.831Z,1.45
2023-03-22T10:12:05.148Z,1.58
2023-03-22T10:14:42.445Z,0.90
2023-03-22T10:17:14.378Z,1.15
2023-03-22T10:19:51.825Z,0.82
2023-03-22T10:22:25.175Z,0.95
2023-03-22T10:24:54.689Z,0.98
2023-03-22T10:27:24.325Z,1.05
2023-03-22T10:29:56.759Z,0.90
2023-03-22T10:32:33.252Z,0.75
2023-03-22T10:35:03.529Z,0.75
2023-03-22T10:37:33.382Z,1.58
2023-03-22T10:40:08.203Z,0.90
2023-03-22T10:42:39.486Z,0.60
2023-03-22T10:45:13.331Z,0.90
2023-03-22T10:47:45.739Z,0.60
2023-03-22T10:50:19.553Z,0.90
2023-03-22T10:52:51.046Z,0.80
2023-03-22T10:55:19.463Z,0.40
2023-03-22T10:57:53.390Z,1.02
2023-03-22T11:00:24.335Z,0.70
2023-03-22T11:02:54.802Z,0.63
2023-03-22T11:05:27.382Z,0.63
2023-03-22T11:07:58.225Z,0.50
2023-03-22T11:10:29.671Z,0.90
2023-03-22T11:13:14.294Z,0.60
2023-03-22T11:15:52.152Z,0.75
2023-03-22T11:18:21.259Z,0.65
2023-03-22T11:20:59.964Z,0.80
2023-03-22T11:23:32.462Z,0.60
2023-03-22T11:26:06.883Z,0.82
2023-03-22T11:28:37.777Z,0.82
2023-03-22T11:31:09.500Z,1.23
2023-03-22T11:33:38.848Z,1.42
2023-03-22T11:36:17.763Z,0.73
2023-03-22T11:38:47.418Z,0.65
2023-03-22T11:41:23.906Z,0.63
2023-03-22T11:43:54.947Z,1.23
2023-03-22T11:46:24.324Z,0.80
2023-03-22T11:49:00.800Z,1.45
2023-03-22T11:51:37.388Z,1.05
2023-03-22T11:54:09.963Z,0.73
2023-03-22T11:56:44.661Z,1.05
2023-03-22T11:59:16.781Z,1.15
2023-03-22T12:01:51.607Z,0.93
2023-03-22T12:04:27.153Z,1.45
2023-03-22T12:06:59.818Z,1.38
2023-03-22T12:09:38.087Z,1.42
2023-03-22T12:12:11.548Z,1.17
2023-03-22T12:14:48.634Z,1.20
2023-03-22T12:17:22.235Z,1.77
2023-03-22T12:19:57.703Z,1.35
2023-03-22T12:22:35.485Z,1.25
2023-03-22T12:25:05.017Z,1.27
2023-03-22T12:27:37.439Z,1.40
2023-03-22T12:30:09.141Z,1.73
2023-03-22T12:32:42.014Z,1.30
2023-03-22T12:35:18.499Z,1.42
2023-03-22T12:37:52.702Z,1.52
2023-03-22T12:40:25.311Z,1.75
2023-03-22T12:43:02.253Z,1.60
2023-03-22T12:45:34.885Z,2.83
2023-03-22T12:48:11.374Z,1.70
2023-03-22T12:50:44.642Z,2.10
2023-03-22T12:53:16.980Z,2.40
2023-03-22T12:55:47.785Z,2.15
2023-03-22T12:58:20.594Z,1.92
2023-03-22T13:00:53.534Z,1.83
2023-03-22T13:03:28.982Z,2.05
2023-03-22T13:06:07.745Z,2.13
2023-03-22T13:09:18.982Z,2.30
2023-03-22T13:11:51.190Z,2.75
2023-03-22T13:14:57.808Z,2.80
2023-03-22T13:17:46.945Z,2.90
2023-03-22T13:20:34.499Z,2.67
2023-03-22T13:23:27.015Z,3.38
2023-03-22T13:26:06.989Z,4.32
2023-03-22T13:28:38.128Z,3.55
2023-03-22T13:31:07.683Z,4.53
2023-03-22T13:33:38.853Z,5.00
2023-03-22T13:36:25.061Z,4.63
2023-03-22T13:38:58.229Z,5.00
2023-03-22T13:41:32.295Z,5.20
2023-03-22T13:44:02.612Z,7.20
2023-03-22T13:46:52.759Z,7.13
2023-03-22T13:49:58.054Z,6.50
2023-03-22T13:52:35.868Z,5.78
2023-03-22T13:55:04.894Z,4.38
2023-03-22T13:57:49.276Z,4.57
2023-03-22T14:00:36.397Z,3.38
2023-03-22T14:03:09.822Z,3.17
2023-03-22T14:05:39.631Z,2.20
2023-03-22T14:08:08.457Z,3.38
2023-03-22T14:10:43.002Z,6.45
2023-03-22T14:13:20.143Z,4.38
2023-03-22T14:15:51.730Z,3.70
2023-03-22T14:18:28.372Z,4.20
2023-03-22T14:21:00.523Z,3.13
